EET,Max TemperatureF,Mean TemperatureF,Min TemperatureF,Max Dew PointF,MeanDew PointF,Min DewpointF,Max Humidity, Mean Humidity, Min Humidity, Max Sea Level PressureIn, Mean Sea Level PressureIn, Min Sea Level PressureIn, Max VisibilityMiles, Mean VisibilityMiles, Min VisibilityMiles, Max Wind SpeedMPH, Mean Wind SpeedMPH, Max Gust SpeedMPH,PrecipitationIn, CloudCover, Events, WindDirDegrees
2012-10-1,89,66,43,39,35,27,76,36,7,30.30,30.25,30.21,6,6,6,7,1,,0.00,4,,237
2012-10-2,86,65,44,43,36,30,76,37,7,30.27,30.21,30.15,12,7,6,5,2,,0.00,3,,149
2012-10-3,86,69,52,46,42,36,71,42,13,30.15,30.11,30.06,12,6,6,16,5,,0.00,4,,279
2012-10-4,71,62,53,55,51,45,94,71,30,30.06,30.03,29.95,12,7,6,13,6,,0.20,6,Rain-Thunderstorm,270
2012-10-5,74,60,46,54,50,45,100,73,27,30.12,30.06,30.04,6,5,1,8,3,,0.00,4,,287
2012-10-6,73,59,45,52,49,46,100,70,28,30.21,30.16,30.12,12,7,6,6,1,,0.00,4,,154
2012-10-7,71,58,45,50,46,43,94,65,26,30.18,30.12,30.06,12,6,6,10,2,,0.03,5,Thunderstorm,271
2012-10-8,60,56,51,54,51,48,100,87,58,30.09,30.02,29.95,12,6,6,13,5,,0.12,6,Rain,311
2012-10-9,63,55,47,52,49,45,100,82,50,30.06,30.00,29.95,6,5,1,12,2,,0.39,6,Rain,52
2012-10-10,67,56,45,52,50,45,100,81,47,30.06,30.04,29.98,6,6,4,15,2,,0.02,6,Rain,147
2012-10-11,70,60,51,54,48,37,100,68,25,30.06,29.93,29.83,12,6,6,22,5,,0.02,6,Rain,142
2012-10-12,63,57,48,52,45,36,94,67,44,30.24,30.10,29.95,12,6,6,13,6,,0.00,6,Rain,284
2012-10-13,63,52,41,48,43,39,100,72,30,30.27,30.21,30.18,12,8,6,5,1,,0.00,4,,170
2012-10-14,71,53,35,48,42,34,100,74,17,30.24,30.17,30.12,12,9,6,4,1,,0.00,,,230
2012-10-15,73,54,36,45,39,31,100,63,13,30.33,30.24,30.18,12,9,6,2,0,,0.00,,,110
2012-10-16,74,56,37,46,40,35,87,66,15,30.36,30.29,30.21,12,8,6,2,1,,0.00,,,-1
2012-10-17,75,57,39,46,40,36,100,56,17,30.30,30.23,30.15,6,6,6,13,1,,0.00,1,,331
2012-10-18,74,56,38,41,39,36,93,54,16,30.27,30.22,30.15,12,7,6,10,1,,0.00,2,,1
2012-10-19,73,56,39,43,40,34,93,61,17,30.24,30.18,30.12,12,7,6,4,0,,0.00,3,,50
2012-10-20,68,54,40,43,40,37,87,58,28,30.21,30.17,30.15,12,7,6,13,3,,0.00,4,,325
2012-10-21,69,53,37,45,41,36,100,62,27,30.24,30.19,30.15,12,6,6,8,2,,0.00,3,,134
2012-10-22,68,55,42,46,44,42,93,68,33,30.24,30.15,30.09,12,7,6,5,1,,0.00,4,,309
2012-10-23,56,49,42,52,47,41,100,89,69,30.09,30.07,30.06,12,6,4,5,1,,0.08,6,Rain,290
2012-10-24,67,56,44,52,46,39,100,78,26,30.12,30.08,30.06,6,4,0,5,1,,0.00,4,Fog,114
2012-10-25,60,51,42,48,45,41,100,78,46,30.09,29.97,29.92,12,6,6,7,2,,0.01,5,Rain,250
2012-10-26,55,50,44,50,47,45,100,91,69,30.01,29.93,29.89,12,7,6,6,1,,0.02,6,Rain,8
2012-10-27,61,52,41,52,45,41,100,88,51,30.12,30.05,30.01,12,4,0,5,1,,0.00,5,Fog,314
2012-10-28,67,50,32,48,40,34,100,79,28,30.21,30.17,30.12,12,4,1,2,0,,0.00,1,Fog,105
2012-10-29,66,48,31,45,39,34,100,76,24,30.24,30.16,30.09,12,6,2,2,1,,0.00,2,,218
2012-10-30,67,52,36,45,40,37,100,69,22,30.12,30.06,30.01,12,6,2,4,2,,0.00,5,,321
2012-10-31,65,50,35,45,40,34,100,69,25,30.18,30.14,30.12,12,7,6,5,1,,0.00,6,,85